createdAt,value
2019-03-17T00:01:57.656Z,97492.73
2019-03-17T00:04:31.634Z,97488.55
2019-03-17T00:07:02.025Z,97484.28
2019-03-17T00:09:33.998Z,97481.12
2019-03-17T00:12:05.940Z,97469.58
2019-03-17T00:14:37.899Z,97468.80
2019-03-17T00:17:09.597Z,97468.84
2019-03-17T00:19:41.481Z,97472.57
2019-03-17T00:22:13.231Z,97452.44
2019-03-17T00:24:45.066Z,97451.74
2019-03-17T00:27:16.732Z,97444.53
2019-03-17T00:29:48.455Z,97451.79
2019-03-17T00:32:20.285Z,97441.41
2019-03-17T00:34:52.045Z,97445.41
2019-03-17T00:37:23.846Z,97445.41
2019-03-17T00:39:55.709Z,97451.09
2019-03-17T00:42:27.791Z,97440.58
2019-03-17T00:44:59.912Z,97441.93
2019-03-17T00:47:32.741Z,97443.14
2019-03-17T00:50:04.868Z,97435.36
2019-03-17T00:52:36.646Z,97442.62
2019-03-17T00:55:08.427Z,97436.45
2019-03-17T00:57:41.357Z,97431.45
2019-03-17T01:00:14.409Z,97415.33
2019-03-17T01:02:47.287Z,97404.86
2019-03-17T01:05:20.092Z,97398.28
2019-03-17T01:07:52.000Z,97403.74
2019-03-17T01:10:24.195Z,97411.07
2019-03-17T01:12:56.094Z,97410.77
2019-03-17T01:15:27.818Z,97407.63
2019-03-17T01:18:00.223Z,97403.63
2019-03-17T01:20:31.835Z,97404.80
2019-03-17T01:23:03.785Z,97406.70
2019-03-17T01:25:37.195Z,97407.78
2019-03-17T01:28:09.297Z,97408.27
2019-03-17T01:30:41.645Z,97399.82
2019-03-17T01:33:13.678Z,97400.53
2019-03-17T01:35:45.760Z,97399.59
2019-03-17T01:38:17.431Z,97405.50
2019-03-17T01:40:49.748Z,97400.48
2019-03-17T01:43:21.703Z,97406.92
2019-03-17T01:45:53.413Z,97409.65
2019-03-17T01:48:25.239Z,97400.52
2019-03-17T01:50:57.052Z,97397.56
2019-03-17T01:53:28.780Z,97398.19
2019-03-17T01:56:00.523Z,97397.44
2019-03-17T01:58:34.767Z,97393.66
2019-03-17T02:01:06.573Z,97398.84
2019-03-17T02:03:38.361Z,97397.02
2019-03-17T02:06:10.734Z,97389.22
2019-03-17T02:08:42.693Z,97392.02
2019-03-17T02:11:14.548Z,97385.37
2019-03-17T02:13:46.318Z,97381.85
2019-03-17T02:16:18.736Z,97385.89
2019-03-17T02:18:50.509Z,97379.03
2019-03-17T02:21:22.189Z,97386.06
2019-03-17T02:23:54.325Z,97382.84
2019-03-17T02:26:26.848Z,97379.13
2019-03-17T02:29:00.051Z,97380.14
2019-03-17T02:31:31.890Z,97383.70
2019-03-17T02:34:03.701Z,97383.10
2019-03-17T02:36:35.522Z,97390.66
2019-03-17T02:39:07.808Z,97386.63
2019-03-17T02:41:39.684Z,97399.05
2019-03-17T02:44:11.471Z,97396.58
2019-03-17T02:46:43.404Z,97408.87
2019-03-17T02:49:15.307Z,97400.03
2019-03-17T02:51:47.141Z,97394.14
2019-03-17T02:54:19.547Z,97389.37
2019-03-17T02:56:51.424Z,97390.77
2019-03-17T02:59:24.583Z,97390.28
2019-03-17T03:01:58.446Z,97383.83
2019-03-17T03:04:30.175Z,97387.93
2019-03-17T03:07:03.620Z,97380.86
2019-03-17T03:09:35.420Z,97382.27
2019-03-17T03:12:07.230Z,97372.09
2019-03-17T03:14:39.011Z,97373.20
2019-03-17T03:17:11.333Z,97366.48
2019-03-17T03:19:43.172Z,97364.09
2019-03-17T03:22:15.425Z,97377.89
2019-03-17T03:24:47.538Z,97370.06
2019-03-17T03:27:19.320Z,97365.52
2019-03-17T03:29:51.411Z,97358.53
2019-03-17T03:32:23.290Z,97359.91
2019-03-17T03:34:55.669Z,97357.76
2019-03-17T03:37:29.044Z,97362.10
2019-03-17T03:40:00.803Z,97360.96
2019-03-17T03:42:32.787Z,97349.42
2019-03-17T03:45:05.452Z,97346.97
2019-03-17T03:47:37.565Z,97336.75
2019-03-17T03:50:09.443Z,97338.36
2019-03-17T03:52:43.601Z,97338.12
2019-03-17T03:55:16.526Z,97336.48
2019-03-17T03:57:48.481Z,97331.64
2019-03-17T04:00:20.342Z,97327.36
2019-03-17T04:02:52.154Z,97318.14
2019-03-17T04:05:24.059Z,97318.17
2019-03-17T04:07:55.722Z,97312.77
2019-03-17T04:10:27.670Z,97311.98
2019-03-17T04:12:59.473Z,97308.72
2019-03-17T04:15:31.253Z,97310.87
2019-03-17T04:18:03.625Z,97310.61
2019-03-17T04:20:35.512Z,97314.66
2019-03-17T04:23:07.451Z,97314.66
2019-03-17T04:25:39.172Z,97314.66
2019-03-17T04:28:10.993Z,97308.97
2019-03-17T04:30:43.123Z,97308.66
2019-03-17T04:33:15.005Z,97296.78
2019-03-17T04:35:46.906Z,97297.57
2019-03-17T04:38:19.250Z,97296.17
2019-03-17T04:40:51.050Z,97296.17
2019-03-17T04:43:22.864Z,97301.80
2019-03-17T04:45:54.867Z,97299.60
2019-03-17T04:48:26.773Z,97300.98
2019-03-17T04:50:58.847Z,97305.53
2019-03-17T04:53:30.614Z,97302.32
2019-03-17T04:56:02.566Z,97297.67
2019-03-17T04:58:34.292Z,97299.89
2019-03-17T05:01:05.960Z,97301.23
2019-03-17T05:03:37.937Z,97302.05
2019-03-17T05:06:10.915Z,97303.33
2019-03-17T05:08:42.640Z,97302.99
2019-03-17T05:11:14.779Z,97301.75
2019-03-17T05:13:46.634Z,97304.97
2019-03-17T05:16:18.380Z,97304.39
2019-03-17T05:18:50.402Z,97310.08
2019-03-17T05:21:22.841Z,97306.59
2019-03-17T05:23:54.679Z,97304.97
2019-03-17T05:26:26.442Z,97305.80
2019-03-17T05:28:58.467Z,97308.22
2019-03-17T05:31:30.261Z,97303.44
2019-03-17T05:34:01.860Z,97301.59
2019-03-17T05:36:33.740Z,97304.87
2019-03-17T05:39:07.920Z,97298.73
2019-03-17T05:41:39.712Z,97304.94
2019-03-17T05:44:11.507Z,97301.48
2019-03-17T05:46:44.137Z,97303.93
2019-03-17T05:49:16.797Z,97299.38
2019-03-17T05:51:48.582Z,97306.66
2019-03-17T05:54:20.392Z,97312.00
2019-03-17T05:56:52.038Z,97305.78
2019-03-17T05:59:23.676Z,97305.84
2019-03-17T06:01:55.708Z,97299.91
2019-03-17T06:04:27.492Z,97300.98
2019-03-17T06:06:59.260Z,97300.70
2019-03-17T06:09:31.062Z,97303.21
2019-03-17T06:12:05.448Z,97305.41
2019-03-17T06:14:38.303Z,97302.25
2019-03-17T06:17:09.972Z,97299.86
2019-03-17T06:19:41.555Z,97299.94
2019-03-17T06:22:13.477Z,97301.12
2019-03-17T06:24:45.537Z,97305.55
2019-03-17T06:27:17.332Z,97301.31
2019-03-17T06:29:49.521Z,97300.52
2019-03-17T06:32:22.375Z,97298.76
2019-03-17T06:34:54.486Z,97296.08
2019-03-17T06:37:31.182Z,97302.87
2019-03-17T06:40:00.772Z,97297.28
2019-03-17T06:42:32.591Z,97305.47
2019-03-17T06:45:04.635Z,97296.05
2019-03-17T06:47:36.271Z,97299.36
2019-03-17T06:50:10.288Z,97294.80
2019-03-17T06:52:42.291Z,97290.78
2019-03-17T06:55:14.726Z,97295.95
2019-03-17T06:57:46.695Z,97297.64
2019-03-17T07:00:18.650Z,97290.59
2019-03-17T07:02:51.675Z,97287.70
2019-03-17T07:05:23.781Z,97288.27
2019-03-17T07:07:55.411Z,97286.39
2019-03-17T07:10:27.017Z,97283.16
2019-03-17T07:12:59.128Z,97283.45
2019-03-17T07:15:31.770Z,97278.63
2019-03-17T07:18:03.818Z,97286.49
2019-03-17T07:20:35.794Z,97290.84
2019-03-17T07:23:08.541Z,97295.22
2019-03-17T07:25:40.213Z,97285.20
2019-03-17T07:28:12.351Z,97286.30
2019-03-17T07:30:44.286Z,97286.30
2019-03-17T07:33:15.930Z,97288.22
2019-03-17T07:35:47.841Z,97289.81
2019-03-17T07:38:19.787Z,97283.04
2019-03-17T07:40:52.021Z,97285.48
2019-03-17T07:43:26.087Z,97287.11
2019-03-17T07:45:58.139Z,97277.09
2019-03-17T07:48:29.843Z,97283.30
2019-03-17T07:51:01.799Z,97281.64
2019-03-17T07:53:33.974Z,97288.67
2019-03-17T07:56:06.106Z,97288.90
2019-03-17T07:58:39.172Z,97284.27
2019-03-17T08:01:11.083Z,97280.20
2019-03-17T08:03:44.953Z,97282.08
2019-03-17T08:06:16.946Z,97289.95
2019-03-17T08:08:49.094Z,97278.77
2019-03-17T08:11:21.121Z,97287.16
2019-03-17T08:13:53.133Z,97284.95
2019-03-17T08:16:25.097Z,97287.91
2019-03-17T08:18:56.771Z,97280.85
2019-03-17T08:21:28.514Z,97289.50
2019-03-17T08:24:00.366Z,97299.27
2019-03-17T08:26:33.022Z,97292.11
2019-03-17T08:29:05.982Z,97287.73
2019-03-17T08:31:37.950Z,97293.95
2019-03-17T08:34:09.857Z,97293.98
2019-03-17T08:36:41.726Z,97288.72
2019-03-17T08:39:14.018Z,97289.61
2019-03-17T08:41:47.334Z,97292.15
2019-03-17T08:44:19.579Z,97287.23
2019-03-17T08:46:51.487Z,97281.66
2019-03-17T08:49:23.251Z,97278.22
2019-03-17T08:51:55.275Z,97303.87
2019-03-17T08:54:26.952Z,97299.52
2019-03-17T08:56:58.534Z,97296.91
2019-03-17T08:59:30.992Z,97291.97
2019-03-17T09:02:03.142Z,97295.77
2019-03-17T09:04:34.879Z,97291.22
2019-03-17T09:07:06.614Z,97290.25
2019-03-17T09:09:38.348Z,97308.52
2019-03-17T09:12:10.474Z,97285.19
2019-03-17T09:14:42.549Z,97280.77
2019-03-17T09:17:14.871Z,97284.44
2019-03-17T09:19:46.910Z,97286.16
2019-03-17T09:22:18.914Z,97295.97
2019-03-17T09:24:50.847Z,97304.23
2019-03-17T09:27:22.926Z,97297.25
2019-03-17T09:29:55.279Z,97301.11
2019-03-17T09:32:27.339Z,97310.08
2019-03-17T09:34:59.137Z,97286.82
2019-03-17T09:37:31.388Z,97287.20
2019-03-17T09:40:03.075Z,97290.84
2019-03-17T09:42:34.861Z,97282.56
2019-03-17T09:45:07.265Z,97276.34
2019-03-17T09:47:41.145Z,97283.74
2019-03-17T09:50:12.876Z,97295.52
2019-03-17T09:52:45.106Z,97281.78
2019-03-17T09:55:17.622Z,97279.48
2019-03-17T09:57:49.567Z,97272.06
2019-03-17T10:00:21.656Z,97270.15
2019-03-17T10:02:53.561Z,97273.53
2019-03-17T10:05:26.045Z,97270.23
2019-03-17T10:07:57.658Z,97272.19
2019-03-17T10:10:29.684Z,97264.98
2019-03-17T10:13:01.398Z,97267.64
2019-03-17T10:15:33.126Z,97250.05
2019-03-17T10:18:04.868Z,97293.44
2019-03-17T10:20:36.649Z,97288.95
2019-03-17T10:23:08.497Z,97254.88
2019-03-17T10:25:42.347Z,97267.34
2019-03-17T10:28:14.135Z,97253.72
2019-03-17T10:30:45.916Z,97244.23
2019-03-17T10:33:17.527Z,97244.25
2019-03-17T10:35:50.381Z,97255.63
2019-03-17T10:38:22.326Z,97258.30
2019-03-17T10:40:54.208Z,97238.44
2019-03-17T10:43:26.051Z,97234.21
2019-03-17T10:45:58.183Z,97237.98
2019-03-17T10:48:29.948Z,97222.48
2019-03-17T10:51:02.336Z,97232.05
2019-03-17T10:53:33.919Z,97241.02
2019-03-17T10:56:07.348Z,97225.81
2019-03-17T10:58:39.238Z,97224.77
2019-03-17T11:01:11.471Z,97215.14
2019-03-17T11:03:43.223Z,97223.64
2019-03-17T11:06:15.251Z,97211.47
2019-03-17T11:08:47.417Z,97201.75
2019-03-17T11:11:19.477Z,97195.49
2019-03-17T11:13:51.117Z,97195.49
2019-03-17T11:16:22.976Z,97193.05
2019-03-17T11:18:56.502Z,97194.95
2019-03-17T11:21:30.807Z,97188.42
2019-03-17T11:24:02.543Z,97196.23
2019-03-17T11:26:34.377Z,97198.22
2019-03-17T11:29:06.284Z,97189.52
2019-03-17T11:31:38.133Z,97198.24
2019-03-17T11:34:10.245Z,97195.13
2019-03-17T11:36:42.054Z,97183.37
2019-03-17T11:39:14.084Z,97173.77
2019-03-17T11:41:45.937Z,97178.38
2019-03-17T11:44:17.951Z,97175.63
2019-03-17T11:46:51.367Z,97180.39
2019-03-17T11:49:22.988Z,97177.50
2019-03-17T11:51:55.148Z,97175.63
2019-03-17T11:54:26.967Z,97176.99
2019-03-17T11:56:59.612Z,97169.49
2019-03-17T11:59:31.408Z,97155.78
2019-03-17T12:02:03.766Z,97152.30
2019-03-17T12:04:35.906Z,97154.38
2019-03-17T12:07:07.766Z,97132.42
2019-03-17T12:09:49.565Z,97132.31
2019-03-17T12:12:14.527Z,97137.63
2019-03-17T12:14:46.409Z,97130.86
2019-03-17T12:17:18.240Z,97128.73
2019-03-17T12:19:50.211Z,97124.91
2019-03-17T12:22:22.110Z,97124.91
2019-03-17T12:24:53.767Z,97117.98
2019-03-17T12:27:27.489Z,97119.25
2019-03-17T12:29:59.428Z,97099.94
2019-03-17T12:32:31.256Z,97099.94
2019-03-17T12:35:03.560Z,97103.30
2019-03-17T12:37:36.382Z,97102.91
2019-03-17T12:40:08.364Z,97107.38
2019-03-17T12:42:41.929Z,97097.33
2019-03-17T12:45:13.924Z,97108.23
2019-03-17T12:47:47.737Z,97110.39
2019-03-17T12:50:19.580Z,97102.59
2019-03-17T12:52:51.374Z,97093.00
2019-03-17T12:55:23.137Z,97093.63
2019-03-17T12:57:55.135Z,97099.98
2019-03-17T13:00:26.840Z,97087.86
2019-03-17T13:02:59.674Z,97086.77
2019-03-17T13:05:31.730Z,97086.51
2019-03-17T13:08:03.543Z,97078.80
2019-03-17T13:10:35.455Z,97087.81
2019-03-17T13:13:07.680Z,97088.89
2019-03-17T13:15:39.579Z,97083.36
2019-03-17T13:18:11.317Z,97072.34
2019-03-17T13:20:43.191Z,97066.94
2019-03-17T13:23:15.389Z,97071.02
2019-03-17T13:25:47.336Z,97057.00
2019-03-17T13:28:19.041Z,97060.38
2019-03-17T13:30:50.889Z,97060.38
2019-03-17T13:33:22.596Z,97048.11
2019-03-17T13:35:57.206Z,97054.34
2019-03-17T13:38:28.936Z,97054.34
2019-03-17T13:41:02.967Z,97050.20
2019-03-17T13:43:34.940Z,97051.06
2019-03-17T13:46:06.917Z,97044.44
2019-03-17T13:48:38.689Z,97044.15
2019-03-17T13:51:10.359Z,97050.64
2019-03-17T13:53:42.180Z,97064.64
2019-03-17T13:56:14.083Z,97064.77
2019-03-17T13:58:48.420Z,97060.25
2019-03-17T14:01:22.018Z,97055.55
2019-03-17T14:03:55.048Z,97060.59
2019-03-17T14:06:28.609Z,97070.12
2019-03-17T14:09:00.579Z,97075.11
2019-03-17T14:11:32.894Z,97070.21
2019-03-17T14:14:04.816Z,97070.21
2019-03-17T14:16:36.670Z,97064.28
2019-03-17T14:19:08.388Z,97071.70
2019-03-17T14:21:40.917Z,97063.08
2019-03-17T14:24:12.940Z,97062.77
2019-03-17T14:26:46.115Z,97056.22
2019-03-17T14:29:18.733Z,97058.67
2019-03-17T14:31:50.560Z,97059.91
2019-03-17T14:34:22.399Z,97054.38
2019-03-17T14:36:54.363Z,97054.38
2019-03-17T14:39:26.507Z,97063.45
2019-03-17T14:41:58.540Z,97059.09
2019-03-17T14:44:30.315Z,97056.91
2019-03-17T14:47:02.237Z,97065.30
2019-03-17T14:49:34.089Z,97059.41
2019-03-17T14:52:06.176Z,97059.81
2019-03-17T14:54:38.198Z,97064.69
2019-03-17T14:57:10.002Z,97056.39
2019-03-17T14:59:41.836Z,97063.27
2019-03-17T15:02:13.508Z,97069.89
2019-03-17T15:04:45.357Z,97075.33
2019-03-17T15:07:17.217Z,97068.25
2019-03-17T15:09:49.003Z,97076.06
2019-03-17T15:12:20.925Z,97081.45
2019-03-17T15:14:52.570Z,97084.67
2019-03-17T15:17:24.442Z,97083.82
2019-03-17T15:19:56.070Z,97081.45
2019-03-17T15:22:30.428Z,97088.73
2019-03-17T15:25:01.844Z,97088.52
2019-03-17T15:27:33.559Z,97088.40
2019-03-17T15:30:06.843Z,97088.03
2019-03-17T15:32:38.573Z,97086.52
2019-03-17T15:35:11.938Z,97089.41
2019-03-17T15:37:43.784Z,97092.29
2019-03-17T15:40:15.795Z,97092.53
2019-03-17T15:42:47.792Z,97097.11
2019-03-17T15:45:19.904Z,97088.84
2019-03-17T15:47:51.781Z,97096.87
2019-03-17T15:50:23.657Z,97103.11
2019-03-17T15:52:55.584Z,97090.47
2019-03-17T15:55:27.368Z,97091.24
2019-03-17T15:57:58.985Z,97085.85
2019-03-17T16:00:30.918Z,97092.41
2019-03-17T16:03:03.029Z,97100.98
2019-03-17T16:05:35.217Z,97101.92
2019-03-17T16:08:07.170Z,97098.56
2019-03-17T16:10:39.143Z,97090.53
2019-03-17T16:13:10.884Z,97088.03
2019-03-17T16:15:42.615Z,97093.86
2019-03-17T16:18:14.760Z,97094.36
2019-03-17T16:20:46.454Z,97097.80
2019-03-17T16:23:18.435Z,97091.27
2019-03-17T16:25:50.733Z,97087.46
2019-03-17T16:28:22.722Z,97082.19
2019-03-17T16:30:54.743Z,97087.33
2019-03-17T16:33:26.777Z,97080.19
2019-03-17T16:35:58.905Z,97080.53
2019-03-17T16:38:31.540Z,97079.00
2019-03-17T16:41:03.398Z,97078.75
2019-03-17T16:43:35.327Z,97074.45
2019-03-17T16:46:07.122Z,97076.05
2019-03-17T16:48:39.443Z,97071.55
2019-03-17T16:51:11.267Z,97063.61
2019-03-17T16:53:43.067Z,97072.22
2019-03-17T16:56:15.026Z,97064.81
2019-03-17T16:58:46.999Z,97065.18
2019-03-17T17:01:19.850Z,97070.46
2019-03-17T17:03:51.782Z,97069.13
2019-03-17T17:06:23.780Z,97067.37
2019-03-17T17:08:55.371Z,97058.70
2019-03-17T17:11:27.063Z,97055.59
2019-03-17T17:13:59.424Z,97064.97
2019-03-17T17:16:31.285Z,97061.93
2019-03-17T17:19:03.312Z,97056.55
2019-03-17T17:21:36.111Z,97057.13
2019-03-17T17:24:09.885Z,97046.34
2019-03-17T17:26:42.073Z,97043.27
2019-03-17T17:29:14.153Z,97050.39
2019-03-17T17:31:45.891Z,97041.84
2019-03-17T17:34:18.204Z,97039.27
2019-03-17T17:36:50.033Z,97040.52
2019-03-17T17:39:21.945Z,97035.20
2019-03-17T17:41:54.005Z,97039.77
2019-03-17T17:44:25.666Z,97041.36
2019-03-17T17:46:58.328Z,97044.46
2019-03-17T17:49:30.351Z,97035.48
2019-03-17T17:52:03.622Z,97032.50
2019-03-17T17:54:35.626Z,97024.67
2019-03-17T17:57:07.737Z,97028.52
2019-03-17T17:59:39.450Z,97015.34
2019-03-17T18:02:11.404Z,97016.72
2019-03-17T18:04:43.322Z,97019.57
2019-03-17T18:07:15.389Z,97021.65
2019-03-17T18:09:47.169Z,97025.02
2019-03-17T18:12:21.172Z,97029.94
2019-03-17T18:14:52.176Z,97020.10
2019-03-17T18:17:24.023Z,97028.98
2019-03-17T18:19:56.850Z,97031.11
2019-03-17T18:22:28.454Z,97019.50
2019-03-17T18:25:00.313Z,97024.86
2019-03-17T18:27:32.002Z,97028.09
2019-03-17T18:30:03.870Z,97025.27
2019-03-17T18:32:38.399Z,97033.09
2019-03-17T18:35:10.373Z,97028.13
2019-03-17T18:37:42.647Z,97023.28
2019-03-17T18:40:15.286Z,97023.53
2019-03-17T18:42:47.101Z,97019.86
2019-03-17T18:45:19.598Z,97023.47
2019-03-17T18:47:52.149Z,97028.57
2019-03-17T18:50:25.461Z,97028.61
2019-03-17T18:52:57.390Z,97029.19
2019-03-17T18:55:29.375Z,97027.89
2019-03-17T18:58:01.418Z,97018.14
2019-03-17T19:00:33.572Z,97015.63
2019-03-17T19:03:06.139Z,97014.23
2019-03-17T19:05:38.998Z,97015.83
2019-03-17T19:08:10.841Z,97027.89
2019-03-17T19:10:43.019Z,97030.37
2019-03-17T19:13:16.297Z,97034.14
2019-03-17T19:15:48.134Z,97035.22
2019-03-17T19:18:19.883Z,97040.48
2019-03-17T19:20:52.868Z,97044.59
2019-03-17T19:23:26.872Z,97047.06
2019-03-17T19:26:00.407Z,97043.58
2019-03-17T19:28:32.214Z,97043.77
2019-03-17T19:31:06.397Z,97046.02
2019-03-17T19:33:38.402Z,97044.45
2019-03-17T19:36:10.206Z,97043.77
2019-03-17T19:38:41.926Z,97047.47
2019-03-17T19:41:13.908Z,97048.80
2019-03-17T19:43:45.649Z,97054.99
2019-03-17T19:46:18.586Z,97043.70
2019-03-17T19:48:50.751Z,97036.53
2019-03-17T19:51:22.469Z,97033.04
2019-03-17T19:53:54.162Z,97031.58
2019-03-17T19:56:25.859Z,97032.08
2019-03-17T19:58:57.538Z,97029.25
2019-03-17T20:01:29.939Z,97019.31
2019-03-17T20:04:02.124Z,97023.80
2019-03-17T20:06:34.049Z,97020.87
2019-03-17T20:09:08.141Z,97017.91
2019-03-17T20:11:39.805Z,97016.08
2019-03-17T20:14:11.704Z,97016.39
2019-03-17T20:16:43.387Z,97016.99
2019-03-17T20:19:15.044Z,97014.91
2019-03-17T20:21:46.880Z,97012.78
2019-03-17T20:24:18.779Z,97009.84
2019-03-17T20:26:50.434Z,97010.18
2019-03-17T20:29:22.345Z,97005.91
2019-03-17T20:31:53.950Z,97006.57
2019-03-17T20:34:26.765Z,96993.36
2019-03-17T20:36:58.366Z,97002.41
2019-03-17T20:39:30.193Z,96993.52
2019-03-17T20:42:02.090Z,96996.79
2019-03-17T20:44:34.296Z,96999.88
2019-03-17T20:47:06.339Z,96995.30
2019-03-17T20:49:39.417Z,96995.30
2019-03-17T20:52:11.319Z,97000.59
2019-03-17T20:54:43.195Z,97000.59
2019-03-17T20:57:15.100Z,97001.58
2019-03-17T20:59:46.966Z,96999.13
2019-03-17T21:02:20.289Z,97002.66
2019-03-17T21:04:52.127Z,96997.85
2019-03-17T21:07:24.309Z,96997.84
2019-03-17T21:09:56.141Z,97002.47
2019-03-17T21:12:27.842Z,96993.57
2019-03-17T21:14:59.540Z,96995.52
2019-03-17T21:17:31.343Z,96992.45
2019-03-17T21:20:03.329Z,96991.63
2019-03-17T21:22:35.251Z,96996.67
2019-03-17T21:25:07.150Z,96985.67
2019-03-17T21:27:38.977Z,96988.36
2019-03-17T21:30:16.298Z,96992.17
2019-03-17T21:32:48.520Z,96992.75
2019-03-17T21:35:20.362Z,96981.83
2019-03-17T21:37:52.085Z,96978.06
2019-03-17T21:40:23.844Z,96982.73
2019-03-17T21:42:55.695Z,96979.50
2019-03-17T21:45:27.756Z,96980.36
2019-03-17T21:47:59.513Z,96982.89
2019-03-17T21:50:31.551Z,96984.36
2019-03-17T21:53:03.510Z,96982.00
2019-03-17T21:55:35.524Z,96974.19
2019-03-17T21:58:08.471Z,96978.33
2019-03-17T22:00:42.058Z,96969.40
2019-03-17T22:03:19.615Z,96968.94
2019-03-17T22:05:51.513Z,96968.94
2019-03-17T22:08:23.249Z,96967.10
2019-03-17T22:10:55.707Z,96969.31
2019-03-17T22:13:27.814Z,96968.26
2019-03-17T22:15:59.544Z,96962.89
2019-03-17T22:18:33.182Z,96968.84
2019-03-17T22:21:06.133Z,96971.59
2019-03-17T22:23:38.177Z,96977.84
2019-03-17T22:26:10.279Z,96968.33
2019-03-17T22:28:42.294Z,96973.49
2019-03-17T22:31:14.456Z,96970.47
2019-03-17T22:33:46.724Z,96970.47
2019-03-17T22:36:18.873Z,96968.30
2019-03-17T22:38:51.126Z,96971.02
2019-03-17T22:41:22.780Z,96963.09
2019-03-17T22:43:54.669Z,96960.11
2019-03-17T22:46:28.929Z,96966.56
2019-03-17T22:49:00.775Z,96957.55
2019-03-17T22:51:32.567Z,96957.20
2019-03-17T22:54:04.618Z,96961.48
2019-03-17T22:56:36.362Z,96966.84
2019-03-17T22:59:08.275Z,96959.73
2019-03-17T23:01:40.509Z,96966.80
2019-03-17T23:04:13.132Z,96959.46
2019-03-17T23:06:45.471Z,96951.58
2019-03-17T23:09:18.239Z,96961.41
2019-03-17T23:11:50.803Z,96958.72
2019-03-17T23:14:35.845Z,96957.13
2019-03-17T23:16:58.098Z,96962.57
2019-03-17T23:19:32.318Z,96968.28
2019-03-17T23:22:04.952Z,96972.66
2019-03-17T23:24:37.411Z,96986.33
2019-03-17T23:27:09.837Z,97004.98
2019-03-17T23:29:42.417Z,97102.81
2019-03-17T23:32:14.755Z,97102.66
2019-03-17T23:34:47.391Z,97091.81
2019-03-17T23:37:20.144Z,97113.50
2019-03-17T23:39:52.490Z,97076.95
2019-03-17T23:42:24.733Z,97112.64
2019-03-17T23:44:57.151Z,97071.26
2019-03-17T23:47:29.288Z,97121.25
2019-03-17T23:50:01.604Z,97060.36
2019-03-17T23:52:34.055Z,97101.67
2019-03-17T23:55:07.266Z,97054.84
2019-03-17T23:57:39.968Z,97120.16
